Current Weather

Centro Met. Antartico Pdte. E

Centro Met. Antartico Pdte. E, Antarctica (SCRM)

Report from: Friday, April 19, 2024 6:00 AM UTC
Current time: Friday, April 19, 2024 8:40 AM UTC

Nearby weather – Weather history – Daily summaries
Weather forecast

Temperature-2.0°C (28.4°F)
Wind chill-4.9°C (23.3°F)
Dew point-7.0°C (19.4°F)
Winds 4 kts (2.1 m/s, 4.6 mph) South-Southeast (160°)
Visibility6.2 mi. (10 km)
Clouds Ceiling: Broken clouds 3,200 ft. (975 m)
Altimeter29.41 in.Hg (996 mB)
Relative humidity69 %
Density altitude-1,434 ft. (-437 m)
Remarks No significant changes expected in the next two hours
Flight conditions Visual Meteorological Conditions
Raw dataSCRM 190600Z 16004KT 9999 BKN032 M02/M07 Q0996 NOSIG
An error has occurred. This application may no longer respond until reloaded. Reload 🗙